Time;durP1;ratioP1;P1;durP2;ratioP2;P2;SDS_P1;SDS_P2;PMS_P1;PMS_P2;Temp;Humidity;BMP_temperature;BMP_pressure;BME280_temperature;BME280_humidity;BME280_pressure;Samples;Min_cycle;Max_cycle;Signal;HPM_P1;HPM_P2
2021/03/12 00:00:34;;;;;;;5.90;2.30;;;24.80;99.90;;;;;;6312491;22;20003;-64
2021/03/12 00:03:01;;;;;;;9.38;1.67;;;24.70;99.90;;;;;;6336915;22;20549;-64
2021/03/12 00:05:29;;;;;;;4.68;2.13;;;24.60;99.90;;;;;;6312854;22;20011;-63
2021/03/12 00:07:56;;;;;;;6.03;2.10;;;24.60;99.90;;;;;;6312042;22;20413;-64
2021/03/12 00:10:27;;;;;;;4.88;2.15;;;24.70;99.90;;;;;;6310259;22;20003;-63
2021/03/12 00:12:55;;;;;;;8.25;2.67;;;24.60;99.90;;;;;;6311836;22;20003;-63
2021/03/12 00:15:23;;;;;;;5.40;2.15;;;24.60;99.90;;;;;;6308843;22;20010;-63
2021/03/12 00:17:52;;;;;;;5.55;1.95;;;24.60;99.90;;;;;;6334253;22;20100;-64
2021/03/12 00:20:45;;;;;;;7.18;2.50;;;24.60;99.90;;;;;;6335173;22;20078;-64
2021/03/12 00:23:12;;;;;;;8.90;2.65;;;24.50;99.90;;;;;;6310602;22;20037;-64
2021/03/12 00:25:44;;;;;;;6.72;2.28;;;24.40;99.90;;;;;;6313542;22;20004;-63
2021/03/12 00:28:13;;;;;;;12.00;2.85;;;24.40;99.90;;;;;;6311249;22;20421;-64
2021/03/12 00:30:41;;;;;;;8.35;2.78;;;24.30;99.90;;;;;;6311903;22;20003;-64
2021/03/12 00:33:09;;;;;;;7.15;2.65;;;24.30;99.90;;;;;;6312206;22;19999;-64
2021/03/12 00:35:38;;;;;;;7.60;3.17;;;24.30;99.90;;;;;;6311594;22;20003;-64
2021/03/12 00:38:05;;;;;;;5.20;2.85;;;24.30;99.90;;;;;;6310763;22;20035;-64
2021/03/12 00:40:43;;;;;;;5.60;2.63;;;24.30;99.90;;;;;;6312575;22;20004;-65
2021/03/12 00:43:11;;;;;;;6.95;2.53;;;24.30;99.90;;;;;;6336427;22;20064;-65
2021/03/12 00:45:41;;;;;;;7.22;2.72;;;24.20;99.90;;;;;;6311315;22;20003;-65
2021/03/12 00:48:08;;;;;;;9.52;2.83;;;24.20;99.90;;;;;;6312655;22;20045;-64
2021/03/12 00:50:37;;;;;;;6.47;2.40;;;24.20;99.90;;;;;;6311543;22;20043;-64
2021/03/12 00:53:06;;;;;;;8.05;2.65;;;24.30;99.90;;;;;;6310195;22;20008;-64
2021/03/12 00:55:34;;;;;;;5.75;2.40;;;24.50;99.90;;;;;;6311185;22;20000;-63
2021/03/12 00:58:02;;;;;;;3.80;1.85;;;24.60;99.90;;;;;;6310042;22;20343;-64
2021/03/12 01:00:31;;;;;;;5.20;1.70;;;24.80;99.90;;;;;;6311761;22;20009;-63
2021/03/12 01:02:58;;;;;;;3.22;1.80;;;24.90;99.90;;;;;;6312376;22;20030;-64
2021/03/12 01:05:27;;;;;;;6.22;2.35;;;25.10;99.90;;;;;;6311346;22;19995;-63
2021/03/12 01:07:55;;;;;;;5.93;2.33;;;25.10;99.90;;;;;;6310245;22;19999;-64
2021/03/12 01:10:23;;;;;;;4.25;1.80;;;25.20;99.90;;;;;;6309761;22;20015;-64
2021/03/12 01:12:50;;;;;;;3.83;1.35;;;25.20;99.90;;;;;;6307795;22;19999;-63
2021/03/12 01:15:20;;;;;;;3.85;1.50;;;25.60;99.90;;;;;;6308927;22;20056;-64
2021/03/12 01:17:48;;;;;;;4.72;1.55;;;26.10;99.90;;;;;;6310297;22;20000;-64
2021/03/12 01:20:27;;;;;;;3.40;1.77;;;26.40;99.90;;;;;;6310430;22;20337;-64
2021/03/12 01:23:00;;;;;;;4.30;1.33;;;26.50;99.90;;;;;;6309887;22;20357;-64
2021/03/12 01:25:38;;;;;;;4.38;1.30;;;26.10;99.90;;;;;;6309104;22;20343;-64
2021/03/12 01:28:07;;;;;;;7.45;2.00;;;25.90;99.90;;;;;;6309393;22;20418;-64
2021/03/12 01:30:37;;;;;;;6.53;2.03;;;26.10;99.90;;;;;;6308028;22;20007;-63
2021/03/12 01:33:05;;;;;;;5.07;2.10;;;26.20;99.90;;;;;;6308434;22;20000;-63
2021/03/12 01:35:33;;;;;;;4.95;1.83;;;26.20;99.90;;;;;;6307488;22;20027;-64
2021/03/12 01:38:01;;;;;;;4.50;1.45;;;26.60;99.90;;;;;;6308838;22;20026;-64
2021/03/12 01:40:30;;;;;;;3.20;1.30;;;27.10;99.90;;;;;;6309623;22;20082;-64
2021/03/12 01:43:00;;;;;;;3.58;1.70;;;27.20;99.90;;;;;;6309048;22;20003;-63
2021/03/12 01:45:38;;;;;;;3.88;1.55;;;27.10;99.90;;;;;;6309631;22;20025;-65
2021/03/12 01:48:09;;;;;;;4.07;1.73;;;26.60;99.90;;;;;;6307201;22;20003;-63
2021/03/12 01:50:41;;;;;;;3.50;1.63;;;26.40;99.90;;;;;;6309312;22;20022;-65
2021/03/12 01:53:13;;;;;;;4.35;1.50;;;26.20;99.90;;;;;;6238337;23;20022;-63
2021/03/12 01:55:41;;;;;;;4.18;2.22;;;26.40;99.90;;;;;;6216045;23;19997;-63
2021/03/12 01:58:09;;;;;;;6.07;2.00;;;26.50;99.90;;;;;;6213091;23;20300;-64
2021/03/12 02:00:37;;;;;;;4.75;1.77;;;26.30;99.90;;;;;;6216398;23;20008;-63
2021/03/12 02:03:06;;;;;;;4.07;1.73;;;26.20;99.90;;;;;;6215373;23;20039;-65
2021/03/12 02:05:35;;;;;;;3.30;1.45;;;26.00;99.90;;;;;;6216131;23;20000;-65
2021/03/12 02:08:04;;;;;;;4.25;2.00;;;26.00;99.90;;;;;;6217653;23;20423;-64
2021/03/12 02:10:33;;;;;;;3.15;1.70;;;26.20;99.90;;;;;;6217935;23;20069;-64
2021/03/12 02:13:23;;;;;;;3.72;1.50;;;26.20;99.90;;;;;;6217446;23;20000;-65
2021/03/12 02:16:02;;;;;;;4.13;1.77;;;26.10;99.90;;;;;;6216587;23;20441;-65
2021/03/12 02:19:00;;;;;;;3.88;2.08;;;26.00;99.90;;;;;;6218819;23;20000;-64
2021/03/12 02:21:45;;;;;;;2.78;1.98;;;26.00;99.90;;;;;;6216406;23;20008;-63
2021/03/12 02:24:20;;;;;;;3.28;1.92;;;26.20;99.90;;;;;;6217694;23;20008;-65
2021/03/12 02:26:47;;;;;;;4.88;1.88;;;26.20;99.90;;;;;;6235788;23;20050;-65
2021/03/12 02:29:21;;;;;;;4.35;2.20;;;26.10;99.90;;;;;;6251011;22;20004;-63
2021/03/12 02:31:52;;;;;;;8.05;1.88;;;25.90;99.90;;;;;;6245811;23;20008;-64
2021/03/12 02:34:22;;;;;;;4.97;1.65;;;25.80;99.90;;;;;;6245519;23;20000;-64
2021/03/12 02:36:54;;;;;;;5.60;1.30;;;25.70;99.90;;;;;;6242800;23;20007;-64
2021/03/12 02:39:26;;;;;;;3.60;1.60;;;25.60;99.90;;;;;;6245813;22;20412;-65
2021/03/12 02:41:56;;;;;;;3.35;1.65;;;25.40;99.90;;;;;;6248080;23;20028;-65
2021/03/12 02:44:24;;;;;;;4.93;2.15;;;25.40;99.90;;;;;;6249341;22;20000;-65
2021/03/12 02:47:01;;;;;;;4.57;1.63;;;25.30;99.90;;;;;;6246870;23;19996;-65
2021/03/12 02:49:30;;;;;;;4.95;2.08;;;25.30;99.90;;;;;;6247677;23;20008;-64
2021/03/12 02:51:58;;;;;;;3.08;1.77;;;25.30;99.90;;;;;;6247074;23;20087;-64
2021/03/12 02:54:25;;;;;;;4.65;2.33;;;25.30;99.90;;;;;;6248169;23;19996;-63
2021/03/12 02:56:53;;;;;;;5.88;2.40;;;25.40;99.90;;;;;;6246489;23;20000;-63
2021/03/12 02:59:22;;;;;;;5.25;2.10;;;25.50;99.90;;;;;;6245484;23;20427;-64
2021/03/12 03:01:51;;;;;;;4.82;1.95;;;25.60;99.90;;;;;;6246164;22;20087;-66
2021/03/12 03:04:21;;;;;;;6.22;2.47;;;25.60;99.90;;;;;;6247989;23;20000;-64
2021/03/12 03:06:49;;;;;;;5.70;2.05;;;25.70;99.90;;;;;;6245987;23;20011;-63
2021/03/12 03:09:19;;;;;;;3.63;1.65;;;25.60;99.90;;;;;;6245732;23;20027;-64
2021/03/12 03:11:47;;;;;;;4.47;2.15;;;25.60;99.90;;;;;;6244893;23;20004;-64
2021/03/12 03:14:16;;;;;;;4.65;2.42;;;25.60;99.90;;;;;;6245440;23;20011;-64
2021/03/12 03:16:45;;;;;;;4.45;2.05;;;25.70;99.90;;;;;;6246358;22;20307;-65
2021/03/12 03:19:14;;;;;;;5.60;1.80;;;25.70;99.90;;;;;;6247513;23;20054;-64
2021/03/12 03:21:44;;;;;;;3.67;2.13;;;25.90;99.90;;;;;;6246026;22;19997;-65
2021/03/12 03:24:11;;;;;;;7.90;2.50;;;26.00;99.90;;;;;;6245076;23;20007;-64
2021/03/12 03:26:39;;;;;;;4.38;1.95;;;26.00;99.90;;;;;;6247321;23;20095;-65
2021/03/12 03:29:07;;;;;;;4.35;1.75;;;25.80;99.90;;;;;;6246601;22;20042;-65
2021/03/12 03:31:34;;;;;;;5.53;2.35;;;26.00;99.90;;;;;;6246434;22;20012;-65
2021/03/12 03:34:02;;;;;;;8.85;2.00;;;26.00;99.90;;;;;;6248606;22;20458;-65
2021/03/12 03:36:29;;;;;;;5.50;2.15;;;25.80;99.90;;;;;;6245861;23;20014;-64
2021/03/12 03:38:56;;;;;;;6.72;1.90;;;25.60;99.90;;;;;;6245302;23;20004;-65
2021/03/12 03:41:24;;;;;;;9.85;2.20;;;25.40;99.90;;;;;;6246570;23;20075;-65
2021/03/12 03:43:54;;;;;;;7.90;2.00;;;25.20;99.90;;;;;;6246962;23;20008;-66
2021/03/12 03:46:22;;;;;;;6.82;2.17;;;25.10;99.90;;;;;;6247397;22;20460;-65
2021/03/12 03:48:51;;;;;;;7.05;2.20;;;25.10;99.90;;;;;;6247001;22;20343;-65
2021/03/12 03:51:19;;;;;;;7.75;1.35;;;25.00;99.90;;;;;;6249053;22;20057;-64
2021/03/12 03:53:46;;;;;;;5.50;1.38;;;24.80;99.90;;;;;;6249621;23;20050;-65
2021/03/12 03:56:17;;;;;;;8.20;1.80;;;24.70;99.90;;;;;;6248698;22;20005;-65
2021/03/12 03:58:45;;;;;;;7.82;2.05;;;24.80;99.90;;;;;;6250091;22;20000;-65
2021/03/12 04:01:15;;;;;;;7.40;1.73;;;24.90;99.90;;;;;;6250182;22;20303;-65
2021/03/12 04:03:44;;;;;;;14.40;2.30;;;25.00;99.90;;;;;;6248362;22;19996;-65
2021/03/12 04:06:12;;;;;;;7.90;2.47;;;24.90;99.90;;;;;;6247728;23;20633;-64
2021/03/12 04:08:39;;;;;;;5.75;2.65;;;25.00;99.90;;;;;;6247129;23;20373;-65
2021/03/12 04:11:07;;;;;;;14.00;2.03;;;24.90;99.90;;;;;;6249278;22;20023;-65
2021/03/12 04:13:34;;;;;;;6.43;1.98;;;24.80;99.90;;;;;;6243715;23;20008;-65
2021/03/12 04:16:02;;;;;;;10.65;2.15;;;24.80;99.90;;;;;;6249111;22;20071;-65
2021/03/12 04:18:30;;;;;;;6.75;2.38;;;24.80;99.90;;;;;;6246559;23;20054;-65
2021/03/12 04:20:59;;;;;;;6.40;2.28;;;24.80;99.90;;;;;;6247804;23;20011;-65
2021/03/12 04:23:27;;;;;;;8.20;2.53;;;24.70;99.90;;;;;;6246072;23;20000;-64
2021/03/12 04:25:54;;;;;;;6.47;2.10;;;24.80;99.90;;;;;;6246448;23;20004;-65
2021/03/12 04:28:22;;;;;;;8.48;2.33;;;24.90;99.90;;;;;;6245942;23;20031;-64
2021/03/12 04:30:49;;;;;;;6.05;2.28;;;25.00;99.90;;;;;;6246136;22;20069;-63
2021/03/12 04:33:17;;;;;;;6.43;2.10;;;25.00;99.90;;;;;;6245001;23;20008;-65
2021/03/12 04:35:45;;;;;;;8.90;2.05;;;25.00;99.90;;;;;;6247659;22;20104;-64
2021/03/12 04:38:12;;;;;;;7.60;2.30;;;25.00;99.90;;;;;;6246839;22;20039;-64
2021/03/12 04:40:40;;;;;;;9.88;2.60;;;25.00;99.90;;;;;;6247679;23;20012;-66
2021/03/12 04:43:09;;;;;;;9.10;2.20;;;25.10;99.90;;;;;;6246787;23;20327;-65
2021/03/12 04:45:37;;;;;;;9.98;2.58;;;25.10;99.90;;;;;;6246733;22;20083;-65
2021/03/12 04:48:06;;;;;;;8.80;2.55;;;25.10;99.90;;;;;;6246813;22;20079;-66
2021/03/12 04:50:34;;;;;;;8.90;2.38;;;25.20;99.90;;;;;;6246513;22;20007;-65
2021/03/12 04:53:01;;;;;;;4.28;2.10;;;25.20;99.90;;;;;;6247587;23;20008;-66
2021/03/12 04:55:29;;;;;;;5.32;2.05;;;25.30;99.90;;;;;;6247710;23;20430;-65
2021/03/12 04:57:57;;;;;;;8.98;2.50;;;25.40;99.90;;;;;;6245021;23;19996;-65
2021/03/12 05:00:24;;;;;;;7.28;2.60;;;25.30;99.90;;;;;;6246918;22;20008;-66
2021/03/12 05:02:53;;;;;;;12.55;2.60;;;25.30;99.90;;;;;;6248403;23;20304;-65
2021/03/12 05:05:22;;;;;;;9.60;2.75;;;25.20;99.90;;;;;;6248610;22;20083;-65
2021/03/12 05:07:52;;;;;;;9.02;3.00;;;25.10;99.90;;;;;;6246784;23;20008;-66
2021/03/12 05:10:19;;;;;;;5.90;2.42;;;25.10;99.90;;;;;;6247688;23;20012;-66
2021/03/12 05:12:46;;;;;;;7.97;2.10;;;25.00;99.90;;;;;;6246288;22;20031;-65
2021/03/12 05:15:14;;;;;;;12.18;2.97;;;25.00;99.90;;;;;;6244381;23;20004;-66
2021/03/12 05:17:41;;;;;;;9.50;2.63;;;24.90;99.90;;;;;;6245929;23;20453;-66
2021/03/12 05:20:09;;;;;;;9.13;3.10;;;24.90;99.90;;;;;;6248520;23;20015;-65
2021/03/12 05:22:37;;;;;;;6.40;2.47;;;24.90;99.90;;;;;;6246930;23;20358;-63
2021/03/12 05:25:04;;;;;;;8.57;2.20;;;24.90;99.90;;;;;;6246452;23;20138;-65
2021/03/12 05:27:32;;;;;;;5.72;2.20;;;24.80;99.90;;;;;;6246454;23;19996;-65
2021/03/12 05:29:59;;;;;;;11.52;2.75;;;24.80;99.90;;;;;;6247835;22;20063;-63
2021/03/12 05:32:26;;;;;;;8.75;2.13;;;24.70;99.90;;;;;;6248399;23;20075;-63
2021/03/12 05:34:53;;;;;;;8.02;2.95;;;24.70;99.90;;;;;;6246157;22;20079;-64
2021/03/12 05:37:21;;;;;;;13.98;3.28;;;24.60;99.90;;;;;;6247204;23;20004;-65
2021/03/12 05:39:48;;;;;;;8.35;2.35;;;24.60;99.90;;;;;;6247048;23;20415;-65
2021/03/12 05:42:15;;;;;;;11.35;2.60;;;24.60;99.90;;;;;;6247390;23;20086;-64
2021/03/12 05:44:46;;;;;;;17.23;2.92;;;24.60;99.90;;;;;;6247912;23;20024;-64
2021/03/12 05:47:13;;;;;;;11.82;2.60;;;24.60;99.90;;;;;;6247568;23;20450;-65
2021/03/12 05:49:41;;;;;;;11.10;2.95;;;24.50;99.90;;;;;;6246430;23;20004;-64
2021/03/12 05:52:12;;;;;;;10.73;2.60;;;24.50;99.90;;;;;;6247199;22;20351;-64
2021/03/12 05:54:39;;;;;;;12.90;3.25;;;24.40;99.90;;;;;;6246009;23;20023;-65
2021/03/12 05:57:07;;;;;;;8.57;2.80;;;24.40;99.90;;;;;;6247036;23;20000;-65
2021/03/12 05:59:35;;;;;;;13.70;3.22;;;24.50;99.90;;;;;;6246233;22;20009;-65
2021/03/12 06:02:02;;;;;;;11.75;3.05;;;24.70;99.90;;;;;;6245670;22;20135;-65
2021/03/12 06:04:29;;;;;;;10.38;3.03;;;24.80;99.90;;;;;;6247190;23;20818;-66
2021/03/12 06:06:57;;;;;;;11.02;2.95;;;24.90;99.90;;;;;;6246720;23;20000;-65
2021/03/12 06:09:24;;;;;;;9.30;2.28;;;24.80;99.90;;;;;;6246714;22;20007;-66
2021/03/12 06:11:55;;;;;;;13.90;2.58;;;24.90;99.90;;;;;;6247110;23;20081;-65
2021/03/12 06:14:48;;;;;;;9.00;2.58;;;25.00;99.90;;;;;;6244867;23;20083;-65
2021/03/12 06:17:38;;;;;;;12.13;2.65;;;25.00;99.90;;;;;;6245987;23;20031;-63
2021/03/12 06:20:15;;;;;;;10.57;2.40;;;25.00;99.90;;;;;;6246638;23;20004;-65
2021/03/12 06:22:59;;;;;;;13.98;2.90;;;25.00;99.90;;;;;;6245812;23;20438;-65
2021/03/12 06:25:29;;;;;;;12.23;2.78;;;25.00;99.90;;;;;;6246166;22;20003;-65
2021/03/12 06:28:12;;;;;;;11.07;2.85;;;24.90;99.90;;;;;;6247317;23;20000;-65
2021/03/12 06:30:39;;;;;;;15.73;2.97;;;24.80;99.90;;;;;;6245730;23;20030;-64
2021/03/12 06:33:06;;;;;;;13.60;3.20;;;24.80;99.90;;;;;;6246059;23;20000;-64
2021/03/12 06:35:38;;;;;;;7.72;2.55;;;24.80;99.90;;;;;;6245285;23;20367;-64
2021/03/12 06:38:10;;;;;;;10.65;2.70;;;24.80;99.90;;;;;;6247207;22;20080;-64
2021/03/12 06:40:41;;;;;;;12.05;2.90;;;24.80;99.90;;;;;;6246606;22;20061;-65
2021/03/12 06:43:24;;;;;;;13.32;3.20;;;24.80;99.90;;;;;;6246064;22;20003;-65
2021/03/12 06:45:51;;;;;;;11.05;2.60;;;24.80;99.90;;;;;;6244825;23;20004;-64
2021/03/12 06:48:21;;;;;;;12.23;2.97;;;24.80;99.90;;;;;;6246320;23;20054;-65
2021/03/12 06:50:55;;;;;;;12.73;2.85;;;24.80;99.90;;;;;;6244083;23;20510;-64
2021/03/12 06:53:25;;;;;;;15.10;3.47;;;24.70;99.90;;;;;;6246038;22;20008;-65
2021/03/12 06:55:54;;;;;;;9.77;2.53;;;24.70;99.90;;;;;;6245519;22;20382;-64
2021/03/12 06:58:22;;;;;;;10.05;2.70;;;24.60;99.90;;;;;;6246008;23;20011;-64
2021/03/12 07:00:49;;;;;;;11.25;2.92;;;24.60;99.90;;;;;;6245559;22;20427;-64
2021/03/12 07:03:27;;;;;;;15.27;3.58;;;24.60;99.90;;;;;;6246194;22;20008;-65
2021/03/12 07:05:55;;;;;;;14.23;4.68;;;24.50;99.90;;;;;;6246690;23;20020;-64
2021/03/12 07:08:31;;;;;;;10.27;3.58;;;24.50;99.90;;;;;;6247346;22;20004;-64
2021/03/12 07:10:58;;;;;;;11.93;2.60;;;24.50;99.90;;;;;;6246267;22;20054;-64
2021/03/12 07:13:26;;;;;;;13.32;4.25;;;24.40;99.90;;;;;;6246461;22;20008;-64
2021/03/12 07:15:56;;;;;;;9.25;2.90;;;24.40;99.90;;;;;;6246240;22;20083;-64
2021/03/12 07:18:24;;;;;;;10.38;3.95;;;24.40;99.90;;;;;;6247157;22;20039;-63
2021/03/12 07:20:52;;;;;;;10.35;2.63;;;24.40;99.90;;;;;;6244545;23;20008;-64
2021/03/12 07:23:21;;;;;;;7.28;1.90;;;24.40;99.90;;;;;;6248610;22;20015;-64
2021/03/12 07:25:50;;;;;;;8.57;2.00;;;24.40;99.90;;;;;;6247034;22;20331;-64
2021/03/12 07:28:21;;;;;;;13.27;3.47;;;24.40;99.90;;;;;;6246889;22;20000;-64
2021/03/12 07:30:51;;;;;;;12.07;2.55;;;24.40;99.90;;;;;;6246381;23;20077;-65
2021/03/12 07:33:26;;;;;;;8.15;2.47;;;24.40;99.90;;;;;;6244976;23;20012;-64
2021/03/12 07:35:55;;;;;;;12.75;2.22;;;24.40;99.90;;;;;;6246112;22;20390;-64
2021/03/12 07:38:24;;;;;;;11.65;2.35;;;24.30;99.90;;;;;;6245814;22;20011;-65
2021/03/12 07:40:53;;;;;;;20.90;3.22;;;24.30;99.90;;;;;;6246397;23;19996;-63
2021/03/12 07:43:21;;;;;;;14.00;2.97;;;24.20;99.90;;;;;;6246317;23;20007;-64
2021/03/12 07:45:48;;;;;;;11.50;2.72;;;24.20;99.90;;;;;;6244941;22;20003;-64
2021/03/12 07:48:15;;;;;;;11.68;2.33;;;24.10;99.90;;;;;;6245169;22;20027;-64
2021/03/12 07:50:43;;;;;;;13.15;2.15;;;24.20;99.90;;;;;;6246484;22;20012;-64
2021/03/12 07:53:10;;;;;;;12.95;2.13;;;24.10;99.90;;;;;;6246960;23;20000;-64
2021/03/12 07:55:37;;;;;;;11.32;2.63;;;24.10;99.90;;;;;;6246196;23;20019;-65
2021/03/12 07:58:06;;;;;;;17.95;2.92;;;24.10;99.90;;;;;;6245262;23;20054;-64
2021/03/12 08:00:52;;;;;;;12.60;2.60;;;24.10;99.90;;;;;;6246162;22;20011;-65
2021/03/12 08:03:41;;;;;;;11.60;2.50;;;24.10;99.90;;;;;;6246554;23;20086;-64
2021/03/12 08:06:23;;;;;;;11.40;2.75;;;24.00;99.90;;;;;;6245993;23;20151;-64
2021/03/12 08:08:50;;;;;;;17.42;3.13;;;23.90;99.90;;;;;;6245999;23;20418;-65
2021/03/12 08:11:32;;;;;;;15.75;3.80;;;23.80;99.90;;;;;;6246584;23;20008;-64
2021/03/12 08:14:19;;;;;;;20.02;3.72;;;23.70;99.90;;;;;;6246967;23;20085;-64
2021/03/12 08:17:00;;;;;;;23.80;4.53;;;23.70;99.90;;;;;;6243853;23;20012;-64
2021/03/12 08:19:39;;;;;;;29.40;5.28;;;23.60;99.90;;;;;;6247422;23;20007;-66
2021/03/12 08:22:27;;;;;;;26.05;5.57;;;23.20;99.90;;;;;;6247004;22;20006;-66
2021/03/12 08:24:57;;;;;;;27.38;5.43;;;22.90;99.90;;;;;;6243698;23;20094;-66
2021/03/12 08:27:41;;;;;;;31.92;6.40;;;22.70;99.90;;;;;;6244156;22;20000;-66
2021/03/12 08:30:12;;;;;;;33.55;7.10;;;22.50;99.90;;;;;;6245877;23;20015;-64
2021/03/12 08:32:43;;;;;;;35.50;7.70;;;22.40;99.90;;;;;;6244962;22;20008;-66
